createdAt,value
2022-10-14T00:01:15.506Z,24.73
2022-10-14T00:03:42.758Z,32.00
2022-10-14T00:06:12.500Z,25.03
2022-10-14T00:08:39.661Z,28.30
2022-10-14T00:11:25.884Z,26.50
2022-10-14T00:13:57.772Z,25.80
2022-10-14T00:16:36.336Z,25.73
2022-10-14T00:19:04.044Z,28.90
2022-10-14T00:21:31.949Z,28.03
2022-10-14T00:23:58.754Z,28.20
2022-10-14T00:26:31.525Z,30.00
2022-10-14T00:28:59.366Z,30.50
2022-10-14T00:31:26.901Z,27.60
2022-10-14T00:33:53.970Z,33.53
2022-10-14T00:36:22.971Z,28.00
2022-10-14T00:38:51.107Z,26.87
2022-10-14T00:41:25.327Z,26.97
2022-10-14T00:44:07.220Z,28.20
2022-10-14T00:46:48.377Z,27.23
2022-10-14T00:49:33.895Z,29.30
2022-10-14T00:52:11.526Z,24.73
2022-10-14T00:54:43.633Z,25.70
2022-10-14T00:57:11.339Z,26.67
2022-10-14T00:59:38.547Z,23.97
2022-10-14T01:02:05.458Z,26.73
2022-10-14T01:04:32.969Z,29.47
2022-10-14T01:07:10.948Z,25.77
2022-10-14T01:09:47.668Z,26.10
2022-10-14T01:12:30.124Z,27.07
2022-10-14T01:15:16.106Z,22.47
2022-10-14T01:17:45.528Z,21.83
2022-10-14T01:20:30.102Z,22.00
2022-10-14T01:23:34.328Z,29.00
2022-10-14T01:26:09.776Z,20.57
2022-10-14T01:28:51.994Z,23.30
2022-10-14T01:31:27.159Z,19.63
2022-10-14T01:33:57.881Z,19.07
2022-10-14T01:36:39.193Z,19.10
2022-10-14T01:39:28.976Z,16.00
2022-10-14T01:42:02.123Z,18.80
2022-10-14T01:44:32.294Z,19.83
2022-10-14T01:47:02.447Z,18.37
2022-10-14T01:49:41.953Z,15.27
2022-10-14T01:52:20.973Z,13.40
2022-10-14T01:54:53.245Z,12.13
2022-10-14T01:57:24.923Z,14.70
2022-10-14T01:59:54.545Z,16.00
2022-10-14T02:02:24.612Z,15.43
2022-10-14T02:04:51.606Z,13.23
2022-10-14T02:07:42.229Z,15.80
2022-10-14T02:10:26.539Z,14.37
2022-10-14T02:13:12.037Z,17.20
2022-10-14T02:16:06.464Z,18.50
2022-10-14T02:18:54.035Z,17.23
2022-10-14T02:21:38.120Z,17.40
2022-10-14T02:24:10.928Z,15.47
2022-10-14T02:26:39.274Z,16.93
2022-10-14T02:29:06.387Z,17.30
2022-10-14T02:31:35.859Z,18.20
2022-10-14T02:34:05.587Z,21.13
2022-10-14T02:36:33.238Z,18.40
2022-10-14T02:39:00.984Z,18.80
2022-10-14T02:41:32.980Z,17.03
2022-10-14T02:44:00.072Z,18.57
2022-10-14T02:46:28.888Z,18.67
2022-10-14T02:48:55.510Z,19.10
2022-10-14T02:51:22.183Z,18.50
2022-10-14T02:53:48.753Z,18.33
2022-10-14T02:56:16.710Z,20.80
2022-10-14T02:58:43.298Z,20.70
2022-10-14T03:01:10.224Z,21.73
2022-10-14T03:03:38.393Z,18.10
2022-10-14T03:06:05.140Z,20.07
2022-10-14T03:08:33.030Z,22.83
2022-10-14T03:11:01.184Z,21.70
2022-10-14T03:13:28.025Z,19.60
2022-10-14T03:15:55.039Z,20.70
2022-10-14T03:18:21.913Z,17.27
2022-10-14T03:20:50.717Z,26.37
2022-10-14T03:23:23.279Z,20.70
2022-10-14T03:25:52.896Z,20.23
2022-10-14T03:28:29.974Z,23.80
2022-10-14T03:31:19.813Z,18.33
2022-10-14T03:34:00.091Z,18.70
2022-10-14T03:36:27.963Z,19.13
2022-10-14T03:38:56.842Z,21.90
2022-10-14T03:41:49.667Z,20.27
2022-10-14T03:44:21.143Z,21.00
2022-10-14T03:47:06.424Z,18.40
2022-10-14T03:49:33.994Z,18.70
2022-10-14T03:52:08.259Z,17.80
2022-10-14T03:54:36.044Z,16.70
2022-10-14T03:57:02.709Z,16.47
2022-10-14T03:59:38.703Z,17.87
2022-10-14T04:02:05.821Z,23.00
2022-10-14T04:04:32.439Z,20.27
2022-10-14T04:06:59.923Z,18.27
2022-10-14T04:09:29.071Z,24.33
2022-10-14T04:11:57.825Z,18.90
2022-10-14T04:14:41.211Z,19.70
2022-10-14T04:17:07.789Z,20.97
2022-10-14T04:19:34.440Z,17.60
2022-10-14T04:22:02.329Z,19.57
2022-10-14T04:24:29.202Z,23.97
2022-10-14T04:26:58.725Z,23.23
2022-10-14T04:29:38.687Z,22.17
2022-10-14T04:32:12.555Z,20.17
2022-10-14T04:34:39.284Z,20.40
2022-10-14T04:37:07.409Z,21.73
2022-10-14T04:39:49.107Z,18.93
2022-10-14T04:42:16.701Z,17.53
2022-10-14T04:44:46.915Z,19.00
2022-10-14T04:47:14.728Z,22.40
2022-10-14T04:49:41.391Z,17.67
2022-10-14T04:52:17.816Z,21.60
2022-10-14T04:54:53.444Z,18.97
2022-10-14T04:57:31.673Z,19.60
2022-10-14T04:59:58.633Z,16.90
2022-10-14T05:02:44.085Z,18.87
2022-10-14T05:05:10.817Z,20.17
2022-10-14T05:07:41.162Z,17.50
2022-10-14T05:10:31.335Z,16.10
2022-10-14T05:12:58.800Z,19.67
2022-10-14T05:15:29.157Z,19.70
2022-10-14T05:18:02.037Z,19.57
2022-10-14T05:20:44.303Z,21.47
2022-10-14T05:23:11.753Z,17.17
2022-10-14T05:25:38.566Z,19.17
2022-10-14T05:28:05.439Z,17.77
2022-10-14T05:30:34.851Z,18.37
2022-10-14T05:33:03.722Z,15.13
2022-10-14T05:35:57.105Z,18.20
2022-10-14T05:38:17.565Z,18.93
2022-10-14T05:40:52.173Z,19.77
2022-10-14T05:43:18.860Z,18.37
2022-10-14T05:45:45.479Z,23.30
2022-10-14T05:48:12.586Z,24.90
2022-10-14T05:50:39.499Z,16.77
2022-10-14T05:53:11.460Z,26.07
2022-10-14T05:55:42.240Z,21.70
2022-10-14T05:58:09.132Z,21.00
2022-10-14T06:00:39.583Z,25.10
2022-10-14T06:03:12.950Z,22.80
2022-10-14T06:05:40.297Z,22.10
2022-10-14T06:08:08.872Z,24.87
2022-10-14T06:10:37.931Z,22.07
2022-10-14T06:13:04.609Z,25.70
2022-10-14T06:15:35.433Z,21.30
2022-10-14T06:18:02.113Z,20.07
2022-10-14T06:20:29.383Z,19.50
2022-10-14T06:22:58.246Z,18.77
2022-10-14T06:25:24.927Z,19.67
2022-10-14T06:27:51.576Z,20.70
2022-10-14T06:30:18.220Z,24.23
2022-10-14T06:32:44.965Z,18.93
2022-10-14T06:35:11.785Z,19.67
2022-10-14T06:37:38.788Z,20.63
2022-10-14T06:40:05.897Z,19.47
2022-10-14T06:42:34.773Z,18.80
2022-10-14T06:45:01.384Z,23.33
2022-10-14T06:47:28.011Z,20.73
2022-10-14T06:49:54.738Z,20.90
2022-10-14T06:52:21.700Z,18.47
2022-10-14T06:54:48.609Z,20.40
2022-10-14T06:57:15.555Z,21.10
2022-10-14T06:59:42.135Z,19.13
2022-10-14T07:02:10.145Z,20.60
2022-10-14T07:04:36.766Z,20.10
2022-10-14T07:07:03.395Z,17.97
2022-10-14T07:09:30.104Z,18.53
2022-10-14T07:11:56.701Z,16.10
2022-10-14T07:14:23.336Z,18.00
2022-10-14T07:16:49.944Z,16.77
2022-10-14T07:19:16.931Z,20.50
2022-10-14T07:21:45.217Z,20.10
2022-10-14T07:24:12.136Z,18.70
2022-10-14T07:26:39.261Z,18.83
2022-10-14T07:29:06.446Z,17.47
2022-10-14T07:31:34.983Z,18.67
2022-10-14T07:34:01.662Z,19.67
2022-10-14T07:36:28.673Z,17.83
2022-10-14T07:38:55.280Z,16.50
2022-10-14T07:41:24.552Z,18.90
2022-10-14T07:43:58.109Z,18.30
2022-10-14T07:46:34.803Z,17.83
2022-10-14T07:49:04.932Z,20.93
2022-10-14T07:51:32.358Z,16.87
2022-10-14T07:54:01.398Z,16.17
2022-10-14T07:56:28.287Z,16.07
2022-10-14T07:58:56.005Z,15.10
2022-10-14T08:01:24.146Z,14.90
2022-10-14T08:03:51.761Z,18.97
2022-10-14T08:06:18.457Z,18.80
2022-10-14T08:08:45.492Z,16.07
2022-10-14T08:11:21.649Z,14.03
2022-10-14T08:13:49.345Z,15.07
2022-10-14T08:16:19.317Z,14.67
2022-10-14T08:18:47.100Z,19.70
2022-10-14T08:21:14.782Z,12.90
2022-10-14T08:23:41.563Z,16.40
2022-10-14T08:26:29.016Z,16.70
2022-10-14T08:28:55.747Z,13.87
2022-10-14T08:31:22.472Z,14.37
2022-10-14T08:33:49.655Z,16.30
2022-10-14T08:36:17.321Z,16.93
2022-10-14T08:38:44.032Z,14.27
2022-10-14T08:41:14.366Z,16.07
2022-10-14T08:43:54.002Z,13.53
2022-10-14T08:46:26.605Z,14.27
2022-10-14T08:49:05.149Z,13.60
2022-10-14T08:51:32.945Z,15.03
2022-10-14T08:54:08.624Z,8.50
2022-10-14T08:56:37.836Z,12.57
2022-10-14T08:59:14.051Z,11.57
2022-10-14T09:01:51.440Z,14.57
2022-10-14T09:04:18.122Z,13.00
2022-10-14T09:06:48.682Z,13.47
2022-10-14T09:09:23.615Z,13.47
2022-10-14T09:11:58.485Z,18.80
2022-10-14T09:14:34.321Z,19.50
2022-10-14T09:17:08.820Z,14.07
2022-10-14T09:19:42.152Z,15.80
2022-10-14T09:22:14.413Z,12.67
2022-10-14T09:24:42.000Z,11.93
2022-10-14T09:27:29.020Z,13.60
2022-10-14T09:30:04.585Z,15.10
2022-10-14T09:32:43.992Z,15.80
2022-10-14T09:35:37.524Z,14.90
2022-10-14T09:38:05.373Z,14.37
2022-10-14T09:40:42.525Z,11.77
2022-10-14T09:43:09.073Z,14.17
2022-10-14T09:46:00.271Z,16.63
2022-10-14T09:48:37.670Z,13.50
2022-10-14T09:51:10.012Z,12.97
2022-10-14T09:53:42.014Z,15.43
2022-10-14T09:56:10.064Z,12.33
2022-10-14T09:58:43.646Z,15.03
2022-10-14T10:01:20.557Z,18.33
2022-10-14T10:03:48.539Z,19.40
2022-10-14T10:06:21.440Z,13.60
2022-10-14T10:08:54.073Z,15.23
2022-10-14T10:11:39.581Z,21.20
2022-10-14T10:14:30.265Z,21.43
2022-10-14T10:17:21.042Z,18.90
2022-10-14T10:19:52.491Z,20.10
2022-10-14T10:22:24.131Z,22.50
2022-10-14T10:25:14.540Z,19.17
2022-10-14T10:27:45.529Z,17.77
2022-10-14T10:30:15.008Z,21.13
2022-10-14T10:32:51.937Z,16.67
2022-10-14T10:35:36.877Z,17.60
2022-10-14T10:38:41.944Z,21.63
2022-10-14T10:41:23.503Z,18.90
2022-10-14T10:44:15.204Z,21.37
2022-10-14T10:46:57.255Z,21.67
2022-10-14T10:49:43.835Z,19.80
2022-10-14T10:52:16.175Z,18.03
2022-10-14T10:55:10.289Z,23.60
2022-10-14T10:58:06.074Z,18.03
2022-10-14T11:00:54.312Z,17.23
2022-10-14T11:03:58.514Z,18.37
2022-10-14T11:07:10.696Z,18.03
2022-10-14T11:10:15.379Z,19.07
2022-10-14T11:13:01.109Z,16.57
2022-10-14T11:15:41.711Z,17.87
2022-10-14T11:18:11.153Z,22.80
2022-10-14T11:20:56.268Z,16.83
2022-10-14T11:23:44.219Z,16.87
2022-10-14T11:26:31.081Z,19.10
2022-10-14T11:29:12.900Z,19.13
2022-10-14T11:32:04.206Z,15.70
2022-10-14T11:35:00.609Z,17.93
2022-10-14T11:37:42.820Z,15.53
2022-10-14T11:40:21.177Z,21.87
2022-10-14T11:43:14.927Z,17.80
2022-10-14T11:45:53.687Z,17.30
2022-10-14T11:48:51.094Z,20.90
2022-10-14T11:51:21.772Z,19.87
2022-10-14T11:54:05.139Z,21.37
2022-10-14T11:56:39.532Z,19.63
2022-10-14T11:59:30.835Z,22.70
2022-10-14T12:02:30.188Z,20.37
2022-10-14T12:05:07.177Z,18.37
2022-10-14T12:07:42.071Z,18.70
2022-10-14T12:10:40.317Z,20.80
2022-10-14T12:13:14.374Z,21.60
2022-10-14T12:15:47.015Z,20.00
2022-10-14T12:18:14.989Z,16.17
2022-10-14T12:21:09.953Z,20.90
2022-10-14T12:23:46.780Z,19.70
2022-10-14T12:26:20.022Z,16.73
2022-10-14T12:28:47.619Z,16.57
2022-10-14T12:31:35.490Z,16.93
2022-10-14T12:34:11.168Z,16.50
2022-10-14T12:36:50.432Z,17.20
2022-10-14T12:39:16.997Z,18.47
2022-10-14T12:41:50.683Z,14.20
2022-10-14T12:44:20.688Z,16.27
2022-10-14T12:46:50.883Z,16.93
2022-10-14T12:49:37.811Z,16.40
2022-10-14T12:52:08.596Z,17.80
2022-10-14T12:54:38.267Z,14.30
2022-10-14T12:57:16.409Z,18.80
2022-10-14T12:59:49.828Z,13.80
2022-10-14T13:02:43.328Z,15.10
2022-10-14T13:05:27.454Z,13.87
2022-10-14T13:08:08.994Z,13.97
2022-10-14T13:10:44.994Z,15.40
2022-10-14T13:13:38.095Z,17.03
2022-10-14T13:16:25.494Z,15.10
2022-10-14T13:19:02.484Z,15.43
2022-10-14T13:21:35.166Z,14.50
2022-10-14T13:24:28.076Z,13.60
2022-10-14T13:26:54.985Z,14.83
2022-10-14T13:29:36.745Z,13.87
2022-10-14T13:32:12.372Z,15.37
2022-10-14T13:34:48.411Z,13.70
2022-10-14T13:37:59.522Z,19.77
2022-10-14T13:40:34.500Z,14.07
2022-10-14T13:43:15.023Z,15.93
2022-10-14T13:45:48.588Z,13.90
2022-10-14T13:48:29.325Z,12.67
2022-10-14T13:51:24.491Z,14.20
2022-10-14T13:54:08.969Z,14.50
2022-10-14T13:56:35.879Z,13.57
2022-10-14T13:59:05.440Z,12.70
2022-10-14T14:01:39.538Z,14.00
2022-10-14T14:04:06.275Z,11.87
2022-10-14T14:06:40.062Z,14.77
2022-10-14T14:09:24.020Z,12.43
2022-10-14T14:11:54.553Z,15.60
2022-10-14T14:14:42.784Z,13.73
2022-10-14T14:17:22.073Z,11.90
2022-10-14T14:19:50.911Z,12.33
2022-10-14T14:22:24.516Z,16.37
2022-10-14T14:24:51.878Z,14.00
2022-10-14T14:27:21.684Z,14.03
2022-10-14T14:29:51.463Z,12.00
2022-10-14T14:32:25.129Z,12.97
2022-10-14T14:40:30.234Z,13.00
2022-10-14T14:43:02.850Z,13.33
2022-10-14T14:45:34.805Z,11.70
2022-10-14T14:48:07.489Z,15.10
2022-10-14T14:50:42.694Z,12.60
2022-10-14T14:53:21.645Z,12.00
2022-10-14T14:55:54.389Z,12.43
2022-10-14T14:58:47.122Z,14.27
2022-10-14T15:01:25.113Z,12.63
2022-10-14T15:04:14.595Z,14.77
2022-10-14T15:07:08.484Z,17.20
2022-10-14T15:09:41.176Z,11.80
2022-10-14T15:12:18.239Z,13.77
2022-10-14T15:14:58.039Z,12.97
2022-10-14T15:17:28.712Z,9.90
2022-10-14T15:20:19.776Z,12.70
2022-10-14T15:22:51.821Z,21.77
2022-10-14T15:25:24.862Z,24.50
2022-10-14T15:27:56.586Z,22.47
2022-10-14T15:30:41.235Z,23.10
2022-10-14T15:33:18.212Z,24.97
2022-10-14T15:35:46.817Z,19.53
2022-10-14T15:38:16.703Z,19.00
2022-10-14T15:40:44.611Z,18.40
2022-10-14T15:43:17.801Z,17.93
2022-10-14T15:46:12.497Z,18.40
2022-10-14T15:48:47.422Z,16.57
2022-10-14T15:51:18.033Z,17.30
2022-10-14T15:53:44.603Z,18.00
2022-10-14T15:56:11.548Z,17.30
2022-10-14T15:58:38.300Z,24.40
2022-10-14T16:01:06.412Z,24.07
2022-10-14T16:03:37.201Z,17.57
2022-10-14T16:06:10.026Z,14.20
2022-10-14T16:08:42.511Z,13.80
2022-10-14T16:11:30.836Z,11.93
2022-10-14T16:13:57.475Z,10.63
2022-10-14T16:16:35.776Z,12.23
2022-10-14T16:19:03.143Z,12.07
2022-10-14T16:21:29.877Z,10.70
2022-10-14T16:23:58.548Z,10.23
2022-10-14T16:26:25.705Z,12.37
2022-10-14T16:28:52.777Z,11.50
2022-10-14T16:31:19.457Z,12.17
2022-10-14T16:33:49.701Z,15.70
2022-10-14T16:36:16.542Z,11.00
2022-10-14T16:38:43.729Z,10.10
2022-10-14T16:41:11.305Z,9.43
2022-10-14T16:43:38.037Z,9.50
2022-10-14T16:46:05.659Z,11.50
2022-10-14T16:48:33.168Z,9.80
2022-10-14T16:51:00.243Z,11.57
2022-10-14T16:53:41.529Z,13.07
2022-10-14T16:56:51.065Z,12.73
2022-10-14T16:59:17.714Z,12.33
2022-10-14T17:01:44.562Z,16.03
2022-10-14T17:04:13.092Z,26.20
2022-10-14T17:06:40.289Z,25.27
2022-10-14T17:09:06.886Z,13.83
2022-10-14T17:11:34.041Z,14.57
2022-10-14T17:14:02.357Z,9.57
2022-10-14T17:16:29.931Z,12.30
2022-10-14T17:18:58.553Z,10.20
2022-10-14T17:21:29.209Z,11.70
2022-10-14T17:24:01.503Z,11.30
2022-10-14T17:26:29.855Z,16.10
2022-10-14T17:28:57.414Z,14.30
2022-10-14T17:31:25.317Z,10.07
2022-10-14T17:33:52.607Z,11.90
2022-10-14T17:36:20.731Z,11.93
2022-10-14T17:38:50.583Z,12.37
2022-10-14T17:41:18.498Z,10.87
2022-10-14T17:43:49.308Z,13.23
2022-10-14T17:46:19.004Z,10.30
2022-10-14T17:48:49.968Z,13.47
2022-10-14T17:51:17.721Z,10.30
2022-10-14T17:53:44.454Z,11.17
2022-10-14T17:56:12.699Z,22.23
2022-10-14T17:58:39.809Z,13.50
2022-10-14T18:01:16.168Z,20.83
2022-10-14T18:03:44.466Z,12.63
2022-10-14T18:06:20.443Z,12.10
2022-10-14T18:08:51.413Z,12.40
2022-10-14T18:11:19.057Z,10.10
2022-10-14T18:13:50.668Z,12.17
2022-10-14T18:16:17.491Z,12.77
2022-10-14T18:18:44.159Z,13.37
2022-10-14T18:21:10.818Z,13.10
2022-10-14T18:23:41.189Z,11.80
2022-10-14T18:26:13.249Z,10.97
2022-10-14T18:28:43.355Z,15.07
2022-10-14T18:31:19.323Z,13.93
2022-10-14T18:33:47.396Z,11.83
2022-10-14T18:36:16.896Z,13.53
2022-10-14T18:38:48.569Z,11.50
2022-10-14T18:41:15.217Z,11.70
2022-10-14T18:43:42.436Z,14.17
2022-10-14T18:46:15.411Z,15.77
2022-10-14T18:48:47.760Z,11.47
2022-10-14T18:51:16.481Z,19.90
2022-10-14T18:53:44.836Z,12.23
2022-10-14T18:56:15.316Z,13.13
2022-10-14T18:58:43.584Z,11.97
2022-10-14T19:01:11.375Z,10.50
2022-10-14T19:03:41.776Z,12.67
2022-10-14T19:06:10.409Z,10.03
2022-10-14T19:08:38.568Z,10.70
2022-10-14T19:11:10.852Z,11.70
2022-10-14T19:13:39.805Z,10.10
2022-10-14T19:16:15.758Z,9.57
2022-10-14T19:18:42.704Z,9.37
2022-10-14T19:21:15.221Z,12.37
2022-10-14T19:23:43.654Z,11.47
2022-10-14T19:28:49.734Z,11.10
2022-10-14T19:31:19.864Z,12.27
2022-10-14T19:33:47.664Z,16.00
2022-10-14T19:36:16.824Z,10.70
2022-10-14T19:38:50.957Z,11.67
2022-10-14T19:41:18.632Z,10.90
2022-10-14T19:43:45.245Z,12.60
2022-10-14T19:46:13.603Z,13.27
2022-10-14T19:48:40.403Z,9.33
2022-10-14T19:51:11.575Z,9.93
2022-10-14T19:53:39.018Z,12.20
2022-10-14T19:56:11.327Z,12.73
2022-10-14T19:58:42.325Z,11.37
2022-10-14T20:01:14.538Z,10.80
2022-10-14T20:03:41.711Z,10.60
2022-10-14T20:06:09.724Z,10.57
2022-10-14T20:08:37.100Z,11.70
2022-10-14T20:11:06.283Z,12.80
2022-10-14T20:13:33.649Z,11.73
2022-10-14T20:16:02.069Z,12.37
2022-10-14T20:18:29.633Z,12.93
2022-10-14T20:20:56.853Z,12.33
2022-10-14T20:23:24.642Z,10.20
2022-10-14T20:25:51.888Z,13.70
2022-10-14T20:28:19.518Z,11.80
2022-10-14T20:30:47.818Z,11.23
2022-10-14T20:33:14.728Z,9.50
2022-10-14T20:35:41.715Z,11.43
2022-10-14T20:38:08.476Z,10.10
2022-10-14T20:40:35.843Z,12.93
2022-10-14T20:43:03.419Z,13.20
2022-10-14T20:45:30.298Z,13.10
2022-10-14T20:47:56.924Z,11.27
2022-10-14T20:50:23.570Z,9.60
2022-10-14T20:52:50.172Z,12.00
2022-10-14T20:55:16.868Z,9.63
2022-10-14T20:57:43.495Z,15.53
2022-10-14T21:00:10.562Z,9.57
2022-10-14T21:02:37.286Z,11.10
2022-10-14T21:05:04.178Z,11.33
2022-10-14T21:07:30.746Z,13.30
2022-10-14T21:09:57.343Z,11.63
2022-10-14T21:12:24.172Z,10.20
2022-10-14T21:14:51.019Z,9.67
2022-10-14T21:17:17.639Z,11.47
2022-10-14T21:19:44.241Z,13.73
2022-10-14T21:22:10.819Z,11.70
2022-10-14T21:24:40.944Z,9.93
2022-10-14T21:27:08.277Z,15.90
2022-10-14T21:29:34.932Z,11.60
2022-10-14T21:32:02.520Z,10.67
2022-10-14T21:34:30.082Z,12.23
2022-10-14T21:36:56.977Z,10.80
2022-10-14T21:39:25.218Z,11.67
2022-10-14T21:41:52.147Z,10.40
2022-10-14T21:44:20.391Z,11.50
2022-10-14T21:46:47.512Z,11.80
2022-10-14T21:49:14.156Z,11.40
2022-10-14T21:51:40.748Z,11.33
2022-10-14T21:54:10.716Z,11.93
2022-10-14T21:56:37.342Z,10.53
2022-10-14T21:59:04.260Z,10.63
2022-10-14T22:01:30.961Z,11.70
2022-10-14T22:03:59.935Z,10.67
2022-10-14T22:06:27.735Z,9.83
2022-10-14T22:08:56.747Z,9.50
2022-10-14T22:11:35.940Z,9.13
2022-10-14T22:14:04.308Z,8.63
2022-10-14T22:16:31.050Z,9.77
2022-10-14T22:19:00.588Z,9.60
2022-10-14T22:21:28.741Z,11.57
2022-10-14T22:23:55.469Z,7.57
2022-10-14T22:26:23.864Z,6.87
2022-10-14T22:28:57.408Z,7.53
2022-10-14T22:31:24.265Z,7.80
2022-10-14T22:33:50.901Z,7.83
2022-10-14T22:36:22.840Z,6.50
2022-10-14T22:38:52.573Z,7.87
2022-10-14T22:41:19.641Z,7.10
2022-10-14T22:43:48.239Z,9.13
2022-10-14T22:46:16.467Z,7.90
2022-10-14T22:48:43.099Z,7.37
2022-10-14T22:51:12.049Z,7.20
2022-10-14T22:53:40.770Z,7.23
2022-10-14T22:56:09.902Z,6.27
2022-10-14T22:58:36.854Z,7.33
2022-10-14T23:01:13.702Z,6.33
2022-10-14T23:03:41.520Z,8.30
2022-10-14T23:06:10.449Z,7.97
2022-10-14T23:08:37.348Z,7.17
2022-10-14T23:11:05.153Z,7.77
2022-10-14T23:13:32.368Z,8.10
2022-10-14T23:16:04.482Z,8.73
2022-10-14T23:18:34.726Z,7.07
2022-10-14T23:21:15.067Z,8.50
2022-10-14T23:23:41.999Z,9.73
2022-10-14T23:26:10.667Z,8.00
2022-10-14T23:28:37.859Z,8.20
2022-10-14T23:31:12.510Z,8.93
2022-10-14T23:33:39.289Z,8.07
2022-10-14T23:36:07.742Z,10.67
2022-10-14T23:38:34.597Z,9.30
2022-10-14T23:41:02.809Z,12.00
2022-10-14T23:43:30.448Z,8.93
2022-10-14T23:45:57.139Z,11.87
2022-10-14T23:48:23.899Z,9.40
2022-10-14T23:50:50.699Z,10.87
2022-10-14T23:53:17.940Z,10.57
2022-10-14T23:55:45.311Z,10.90
2022-10-14T23:58:12.584Z,11.10
